createdAt,value
2019-01-29T00:01:46.523Z,99452.07
2019-01-29T00:04:16.930Z,99453.91
2019-01-29T00:06:48.399Z,99450.37
2019-01-29T00:09:19.860Z,99453.98
2019-01-29T00:11:51.374Z,99452.22
2019-01-29T00:14:27.421Z,99456.26
2019-01-29T00:17:00.594Z,99453.39
2019-01-29T00:19:31.460Z,99460.17
2019-01-29T00:22:03.297Z,99464.14
2019-01-29T00:24:33.829Z,99464.56
2019-01-29T00:27:04.215Z,99463.64
2019-01-29T00:29:38.481Z,99470.05
2019-01-29T00:32:08.956Z,99472.20
2019-01-29T00:34:39.466Z,99478.69
2019-01-29T00:37:10.578Z,99476.06
2019-01-29T00:39:40.997Z,99477.91
2019-01-29T00:42:12.781Z,99480.06
2019-01-29T00:44:43.413Z,99482.22
2019-01-29T00:47:15.723Z,99476.98
2019-01-29T00:49:46.511Z,99481.30
2019-01-29T00:52:17.374Z,99482.61
2019-01-29T00:54:47.996Z,99480.45
2019-01-29T00:57:21.729Z,99488.24
2019-01-29T00:59:52.476Z,99482.15
2019-01-29T01:02:23.374Z,99483.53
2019-01-29T01:04:53.755Z,99486.69
2019-01-29T01:07:24.048Z,99488.53
2019-01-29T01:09:57.305Z,99490.34
2019-01-29T01:12:27.537Z,99491.27
2019-01-29T01:14:57.789Z,99497.87
2019-01-29T01:17:27.980Z,99501.28
2019-01-29T01:19:58.614Z,99506.98
2019-01-29T01:22:28.933Z,99502.73
2019-01-29T01:24:59.243Z,99506.34
2019-01-29T01:27:29.477Z,99505.56
2019-01-29T01:29:59.813Z,99504.83
2019-01-29T01:32:30.118Z,99512.97
2019-01-29T01:35:00.918Z,99509.74
2019-01-29T01:37:31.631Z,99510.13
2019-01-29T01:40:02.060Z,99517.59
2019-01-29T01:42:33.427Z,99510.13
2019-01-29T01:45:04.092Z,99509.74
2019-01-29T01:47:34.312Z,99510.13
2019-01-29T01:50:04.710Z,99520.08
2019-01-29T01:52:35.039Z,99525.67
2019-01-29T01:55:06.004Z,99530.84
2019-01-29T01:57:36.482Z,99519.91
2019-01-29T02:00:07.862Z,99528.93
2019-01-29T02:02:38.514Z,99524.61
2019-01-29T02:05:09.251Z,99531.02
2019-01-29T02:07:39.471Z,99528.86
2019-01-29T02:10:22.230Z,99533.57
2019-01-29T02:12:52.420Z,99532.23
2019-01-29T02:15:22.638Z,99535.30
2019-01-29T02:17:52.920Z,99527.95
2019-01-29T02:20:23.284Z,99526.52
2019-01-29T02:22:53.716Z,99529.78
2019-01-29T02:25:24.038Z,99528.33
2019-01-29T02:27:54.323Z,99526.56
2019-01-29T02:30:25.863Z,99525.61
2019-01-29T02:32:56.116Z,99531.48
2019-01-29T02:35:26.400Z,99525.33
2019-01-29T02:37:56.828Z,99534.88
2019-01-29T02:40:29.064Z,99540.86
2019-01-29T02:43:03.353Z,99535.87
2019-01-29T02:45:33.606Z,99536.55
2019-01-29T02:48:04.077Z,99540.41
2019-01-29T02:50:34.352Z,99546.03
2019-01-29T02:53:04.553Z,99549.44
2019-01-29T02:55:34.908Z,99543.34
2019-01-29T02:58:05.262Z,99546.42
2019-01-29T03:00:36.601Z,99548.12
2019-01-29T03:03:08.081Z,99553.89
2019-01-29T03:05:39.745Z,99547.41
2019-01-29T03:08:09.990Z,99551.91
2019-01-29T03:10:40.163Z,99552.72
2019-01-29T03:13:11.440Z,99559.27
2019-01-29T03:15:41.870Z,99557.15
2019-01-29T03:18:12.085Z,99557.75
2019-01-29T03:20:42.350Z,99563.52
2019-01-29T03:23:12.549Z,99564.61
2019-01-29T03:25:42.745Z,99564.35
2019-01-29T03:28:13.059Z,99563.25
2019-01-29T03:30:43.757Z,99560.88
2019-01-29T03:33:14.010Z,99561.95
2019-01-29T03:35:44.655Z,99571.00
2019-01-29T03:38:15.105Z,99574.01
2019-01-29T03:40:45.389Z,99574.40
2019-01-29T03:43:16.691Z,99569.16
2019-01-29T03:45:46.975Z,99568.84
2019-01-29T03:48:17.455Z,99573.62
2019-01-29T03:50:47.951Z,99570.94
2019-01-29T03:53:18.359Z,99577.55
2019-01-29T03:55:48.585Z,99577.61
2019-01-29T03:58:19.210Z,99579.88
2019-01-29T04:00:49.946Z,99581.77
2019-01-29T04:03:20.195Z,99584.58
2019-01-29T04:05:50.680Z,99585.70
2019-01-29T04:08:20.953Z,99585.62
2019-01-29T04:10:52.286Z,99592.17
2019-01-29T04:13:23.627Z,99600.33
2019-01-29T04:16:00.109Z,99607.66
2019-01-29T04:18:30.645Z,99597.50
2019-01-29T04:21:01.370Z,99601.76
2019-01-29T04:23:32.730Z,99604.37
2019-01-29T04:26:03.109Z,99602.16
2019-01-29T04:28:34.196Z,99606.08
2019-01-29T04:31:05.683Z,99603.46
2019-01-29T04:33:36.370Z,99603.23
2019-01-29T04:36:06.811Z,99604.86
2019-01-29T04:38:37.529Z,99596.84
2019-01-29T04:41:08.122Z,99606.72
2019-01-29T04:43:38.707Z,99601.73
2019-01-29T04:46:09.632Z,99596.86
2019-01-29T04:48:40.063Z,99600.13
2019-01-29T04:51:10.483Z,99600.80
2019-01-29T04:53:40.835Z,99601.05
2019-01-29T04:56:11.056Z,99598.30
2019-01-29T04:58:41.365Z,99602.05
2019-01-29T05:01:11.787Z,99603.55
2019-01-29T05:03:43.136Z,99612.19
2019-01-29T05:06:13.476Z,99611.23
2019-01-29T05:08:44.071Z,99616.12
2019-01-29T05:11:14.317Z,99618.70
2019-01-29T05:13:44.588Z,99616.65
2019-01-29T05:16:16.700Z,99619.02
2019-01-29T05:18:46.936Z,99615.20
2019-01-29T05:21:17.144Z,99622.18
2019-01-29T05:23:47.424Z,99619.28
2019-01-29T05:26:17.687Z,99631.36
2019-01-29T05:28:48.324Z,99622.50
2019-01-29T05:31:19.426Z,99626.76
2019-01-29T05:33:49.905Z,99625.84
2019-01-29T05:36:20.438Z,99629.31
2019-01-29T05:38:51.113Z,99637.03
2019-01-29T05:41:21.797Z,99628.98
2019-01-29T05:43:52.033Z,99630.16
2019-01-29T05:46:22.350Z,99626.50
2019-01-29T05:48:52.874Z,99624.66
2019-01-29T05:51:24.224Z,99624.66
2019-01-29T05:53:54.581Z,99632.23
2019-01-29T05:56:24.777Z,99627.20
2019-01-29T05:58:56.070Z,99624.81
2019-01-29T06:01:26.948Z,99625.41
2019-01-29T06:03:57.454Z,99631.56
2019-01-29T06:06:27.781Z,99631.56
2019-01-29T06:08:58.462Z,99634.96
2019-01-29T06:11:28.772Z,99634.96
2019-01-29T06:13:58.960Z,99629.17
2019-01-29T06:16:29.264Z,99623.47
2019-01-29T06:18:59.544Z,99627.63
2019-01-29T06:21:29.788Z,99628.25
2019-01-29T06:24:00.098Z,99635.20
2019-01-29T06:26:30.398Z,99639.14
2019-01-29T06:29:01.126Z,99639.28
2019-01-29T06:31:31.421Z,99639.28
2019-01-29T06:34:01.703Z,99635.81
2019-01-29T06:36:32.546Z,99646.62
2019-01-29T06:39:03.514Z,99646.62
2019-01-29T06:41:33.784Z,99647.09
2019-01-29T06:44:04.213Z,99652.27
2019-01-29T06:46:34.712Z,99646.23
2019-01-29T06:49:05.194Z,99646.23
2019-01-29T06:51:35.389Z,99657.17
2019-01-29T06:54:05.918Z,99659.84
2019-01-29T06:56:36.446Z,99662.59
2019-01-29T06:59:06.667Z,99670.17
2019-01-29T07:01:37.289Z,99675.55
2019-01-29T07:04:07.965Z,99673.55
2019-01-29T07:06:38.321Z,99674.63
2019-01-29T07:09:09.704Z,99668.02
2019-01-29T07:11:40.506Z,99675.28
2019-01-29T07:14:12.546Z,99668.95
2019-01-29T07:17:02.862Z,99680.89
2019-01-29T07:19:37.514Z,99685.17
2019-01-29T07:22:10.784Z,99685.72
2019-01-29T07:24:43.224Z,99683.66
2019-01-29T07:27:15.652Z,99681.91
2019-01-29T07:29:47.308Z,99680.44
2019-01-29T07:32:20.406Z,99679.38
2019-01-29T07:34:52.581Z,99679.72
2019-01-29T07:37:24.105Z,99687.30
2019-01-29T07:39:55.884Z,99680.33
2019-01-29T07:42:28.448Z,99684.92
2019-01-29T07:45:00.267Z,99687.77
2019-01-29T07:47:31.766Z,99701.69
2019-01-29T07:50:05.103Z,99687.94
2019-01-29T07:52:37.601Z,99698.19
2019-01-29T07:55:09.075Z,99697.86
2019-01-29T07:57:40.934Z,99703.17
2019-01-29T08:00:16.628Z,99711.48
2019-01-29T08:02:49.385Z,99710.48
2019-01-29T08:05:21.755Z,99710.21
2019-01-29T08:07:54.096Z,99708.52
2019-01-29T08:10:25.820Z,99711.68
2019-01-29T08:12:57.396Z,99717.32
2019-01-29T08:15:29.719Z,99721.95
2019-01-29T08:18:03.605Z,99717.52
2019-01-29T08:20:35.984Z,99714.66
2019-01-29T08:23:08.186Z,99715.30
2019-01-29T08:25:47.602Z,99718.02
2019-01-29T08:28:14.709Z,99722.91
2019-01-29T08:30:47.064Z,99718.61
2019-01-29T08:33:18.841Z,99728.17
2019-01-29T08:35:51.302Z,99727.79
2019-01-29T08:38:23.340Z,99721.99
2019-01-29T08:40:55.557Z,99725.91
2019-01-29T08:43:27.695Z,99725.92
2019-01-29T08:46:00.359Z,99732.23
2019-01-29T08:48:32.085Z,99736.23
2019-01-29T08:51:05.278Z,99737.23
2019-01-29T08:53:37.172Z,99747.24
2019-01-29T08:56:07.612Z,99748.41
2019-01-29T08:58:38.210Z,99750.45
2019-01-29T09:01:09.672Z,99751.72
2019-01-29T09:03:40.923Z,99742.92
2019-01-29T09:06:11.190Z,99748.86
2019-01-29T09:08:41.591Z,99746.70
2019-01-29T09:11:12.845Z,99749.89
2019-01-29T09:13:43.112Z,99749.34
2019-01-29T09:16:13.497Z,99746.95
2019-01-29T09:18:43.788Z,99747.16
2019-01-29T09:21:13.960Z,99746.23
2019-01-29T09:23:44.273Z,99751.49
2019-01-29T09:26:14.451Z,99749.80
2019-01-29T09:28:45.002Z,99746.05
2019-01-29T09:31:15.310Z,99744.35
2019-01-29T09:33:45.715Z,99744.35
2019-01-29T09:36:16.219Z,99751.49
2019-01-29T09:38:46.587Z,99753.36
2019-01-29T09:41:16.806Z,99754.05
2019-01-29T09:43:47.280Z,99748.48
2019-01-29T09:46:17.750Z,99750.84
2019-01-29T09:48:48.216Z,99749.53
2019-01-29T09:51:18.544Z,99752.08
2019-01-29T09:53:48.997Z,99758.56
2019-01-29T09:56:19.256Z,99752.06
2019-01-29T09:58:49.860Z,99759.45
2019-01-29T10:01:20.460Z,99760.42
2019-01-29T10:03:51.003Z,99755.70
2019-01-29T10:06:21.288Z,99757.34
2019-01-29T10:08:52.676Z,99760.94
2019-01-29T10:11:23.029Z,99757.70
2019-01-29T10:13:53.232Z,99754.69
2019-01-29T10:16:23.926Z,99758.27
2019-01-29T10:18:56.782Z,99760.06
2019-01-29T10:21:27.117Z,99758.31
2019-01-29T10:23:57.542Z,99754.33
2019-01-29T10:26:29.870Z,99754.55
2019-01-29T10:29:00.113Z,99755.05
2019-01-29T10:31:30.844Z,99753.39
2019-01-29T10:34:01.176Z,99756.33
2019-01-29T10:36:31.452Z,99751.98
2019-01-29T10:39:02.159Z,99757.95
2019-01-29T10:41:32.641Z,99752.13
2019-01-29T10:44:02.933Z,99746.31
2019-01-29T10:46:33.641Z,99739.24
2019-01-29T10:49:03.939Z,99734.91
2019-01-29T10:51:36.281Z,99734.91
2019-01-29T10:54:07.022Z,99743.39
2019-01-29T10:56:37.378Z,99742.67
2019-01-29T10:59:07.854Z,99738.98
2019-01-29T11:01:38.251Z,99731.54
2019-01-29T11:04:08.445Z,99740.83
2019-01-29T11:06:39.106Z,99746.12
2019-01-29T11:09:12.663Z,99736.98
2019-01-29T11:11:43.311Z,99737.81
2019-01-29T11:14:13.686Z,99737.84
2019-01-29T11:16:47.541Z,99740.77
2019-01-29T11:19:17.792Z,99740.66
2019-01-29T11:21:48.550Z,99745.49
2019-01-29T11:24:19.112Z,99743.67
2019-01-29T11:26:49.551Z,99747.83
2019-01-29T11:29:20.519Z,99749.10
2019-01-29T11:31:50.896Z,99740.50
2019-01-29T11:34:21.306Z,99741.82
2019-01-29T11:36:51.650Z,99744.15
2019-01-29T11:39:21.926Z,99737.36
2019-01-29T11:41:52.299Z,99747.52
2019-01-29T11:44:22.931Z,99744.27
2019-01-29T11:46:53.573Z,99751.39
2019-01-29T11:49:24.090Z,99744.80
2019-01-29T11:51:55.111Z,99746.53
2019-01-29T11:54:25.662Z,99735.63
2019-01-29T11:56:55.963Z,99739.27
2019-01-29T11:59:26.309Z,99730.42
2019-01-29T12:01:56.543Z,99735.54
2019-01-29T12:04:27.910Z,99733.30
2019-01-29T12:06:58.474Z,99735.58
2019-01-29T12:09:28.715Z,99733.12
2019-01-29T12:11:59.363Z,99737.09
2019-01-29T12:14:30.405Z,99738.12
2019-01-29T12:17:00.630Z,99732.92
2019-01-29T12:19:30.857Z,99729.48
2019-01-29T12:22:01.242Z,99735.42
2019-01-29T12:24:31.705Z,99735.05
2019-01-29T12:27:01.956Z,99731.16
2019-01-29T12:29:32.869Z,99729.30
2019-01-29T12:32:03.136Z,99725.50
2019-01-29T12:34:33.725Z,99731.18
2019-01-29T12:37:05.459Z,99725.16
2019-01-29T12:39:38.652Z,99721.47
2019-01-29T12:42:09.204Z,99712.72
2019-01-29T12:44:44.755Z,99709.39
2019-01-29T12:47:15.077Z,99715.74
2019-01-29T12:49:45.845Z,99710.06
2019-01-29T12:52:23.166Z,99709.33
2019-01-29T12:54:55.158Z,99713.91
2019-01-29T12:57:25.483Z,99702.42
2019-01-29T12:59:56.038Z,99703.27
2019-01-29T13:02:28.200Z,99710.08
2019-01-29T13:05:00.182Z,99708.38
2019-01-29T13:07:30.551Z,99704.30
2019-01-29T13:10:01.199Z,99711.20
2019-01-29T13:12:32.491Z,99707.60
2019-01-29T13:15:03.390Z,99708.95
2019-01-29T13:17:33.823Z,99708.09
2019-01-29T13:20:06.129Z,99708.20
2019-01-29T13:22:38.256Z,99710.47
2019-01-29T13:25:10.259Z,99703.84
2019-01-29T13:27:41.357Z,99709.98
2019-01-29T13:30:23.805Z,99713.11
2019-01-29T13:32:54.064Z,99701.20
2019-01-29T13:35:26.311Z,99704.60
2019-01-29T13:37:56.900Z,99704.80
2019-01-29T13:40:29.272Z,99704.98
2019-01-29T13:42:59.546Z,99702.05
2019-01-29T13:45:31.103Z,99700.53
2019-01-29T13:48:03.809Z,99711.19
2019-01-29T13:50:44.013Z,99702.81
2019-01-29T13:53:14.965Z,99701.94
2019-01-29T13:55:46.226Z,99698.17
2019-01-29T13:58:16.989Z,99704.78
2019-01-29T14:00:47.328Z,99708.74
2019-01-29T14:03:18.764Z,99706.39
2019-01-29T14:05:49.283Z,99701.03
2019-01-29T14:08:21.810Z,99709.89
2019-01-29T14:10:53.655Z,99703.84
2019-01-29T14:13:24.349Z,99701.21
2019-01-29T14:15:59.597Z,99704.42
2019-01-29T14:18:31.903Z,99697.70
2019-01-29T14:21:02.287Z,99698.16
2019-01-29T14:23:33.357Z,99699.88
2019-01-29T14:26:03.608Z,99695.14
2019-01-29T14:28:37.119Z,99690.60
2019-01-29T14:31:07.451Z,99695.29
2019-01-29T14:33:38.071Z,99698.41
2019-01-29T14:36:16.459Z,99692.19
2019-01-29T14:39:10.224Z,99697.56
2019-01-29T14:41:40.853Z,99687.00
2019-01-29T14:44:24.018Z,99692.73
2019-01-29T14:46:54.543Z,99687.55
2019-01-29T14:49:25.370Z,99693.95
2019-01-29T14:51:56.124Z,99701.50
2019-01-29T14:54:26.728Z,99696.31
2019-01-29T14:56:57.428Z,99693.17
2019-01-29T14:59:27.815Z,99692.41
2019-01-29T15:01:58.383Z,99690.72
2019-01-29T15:04:28.658Z,99690.50
2019-01-29T15:07:00.477Z,99691.06
2019-01-29T15:09:33.729Z,99691.25
2019-01-29T15:12:03.968Z,99689.18
2019-01-29T15:14:35.619Z,99692.78
2019-01-29T15:17:29.449Z,99692.08
2019-01-29T15:20:00.266Z,99692.59
2019-01-29T15:22:30.807Z,99690.61
2019-01-29T15:25:01.100Z,99684.20
2019-01-29T15:27:33.970Z,99683.06
2019-01-29T15:30:06.072Z,99685.22
2019-01-29T15:32:36.442Z,99680.56
2019-01-29T15:35:08.051Z,99677.17
2019-01-29T15:37:38.377Z,99680.55
2019-01-29T15:40:11.435Z,99683.51
2019-01-29T15:42:41.921Z,99679.73
2019-01-29T15:45:15.233Z,99672.16
2019-01-29T15:47:45.610Z,99673.83
2019-01-29T15:50:19.112Z,99680.35
2019-01-29T15:52:49.277Z,99678.36
2019-01-29T15:55:19.815Z,99675.26
2019-01-29T15:57:50.491Z,99674.08
2019-01-29T16:00:27.277Z,99675.81
2019-01-29T16:02:57.598Z,99678.59
2019-01-29T16:05:29.454Z,99679.46
2019-01-29T16:07:59.902Z,99676.83
2019-01-29T16:10:39.469Z,99679.81
2019-01-29T16:13:05.261Z,99680.74
2019-01-29T16:15:35.529Z,99683.52
2019-01-29T16:18:06.222Z,99680.67
2019-01-29T16:20:37.563Z,99678.05
2019-01-29T16:23:08.035Z,99685.35
2019-01-29T16:25:39.064Z,99690.75
2019-01-29T16:28:09.787Z,99688.20
2019-01-29T16:30:40.419Z,99681.80
2019-01-29T16:33:11.009Z,99685.36
2019-01-29T16:35:41.395Z,99673.22
2019-01-29T16:38:11.731Z,99677.22
2019-01-29T16:40:42.470Z,99680.11
2019-01-29T16:43:13.588Z,99677.09
2019-01-29T16:45:47.792Z,99679.42
2019-01-29T16:48:18.255Z,99675.48
2019-01-29T16:50:50.233Z,99666.48
2019-01-29T16:53:22.838Z,99668.91
2019-01-29T16:55:54.434Z,99672.94
2019-01-29T16:58:25.165Z,99670.83
2019-01-29T17:01:02.880Z,99664.71
2019-01-29T17:03:33.591Z,99665.17
2019-01-29T17:06:09.332Z,99673.63
2019-01-29T17:08:40.348Z,99670.52
2019-01-29T17:11:11.093Z,99672.17
2019-01-29T17:13:43.447Z,99664.28
2019-01-29T17:16:13.784Z,99663.09
2019-01-29T17:18:45.347Z,99663.34
2019-01-29T17:21:16.716Z,99663.34
2019-01-29T17:23:47.327Z,99658.77
2019-01-29T17:26:18.299Z,99667.98
2019-01-29T17:28:50.135Z,99666.11
2019-01-29T17:31:20.693Z,99665.34
2019-01-29T17:33:51.597Z,99664.80
2019-01-29T17:36:22.370Z,99662.58
2019-01-29T17:38:52.885Z,99662.58
2019-01-29T17:41:23.644Z,99664.33
2019-01-29T17:43:55.810Z,99660.63
2019-01-29T17:46:26.152Z,99662.72
2019-01-29T17:48:58.609Z,99665.73
2019-01-29T17:51:30.897Z,99664.80
2019-01-29T17:54:02.174Z,99662.11
2019-01-29T17:56:32.927Z,99658.22
2019-01-29T17:59:05.016Z,99659.70
2019-01-29T18:01:40.539Z,99666.45
2019-01-29T18:04:12.148Z,99656.94
2019-01-29T18:06:45.235Z,99659.70
2019-01-29T18:09:15.631Z,99664.50
2019-01-29T18:11:46.152Z,99662.88
2019-01-29T18:14:16.716Z,99657.40
2019-01-29T18:16:54.494Z,99669.70
2019-01-29T18:19:24.905Z,99668.98
2019-01-29T18:21:56.925Z,99661.34
2019-01-29T18:24:27.934Z,99657.69
2019-01-29T18:26:58.479Z,99660.86
2019-01-29T18:29:29.315Z,99662.56
2019-01-29T18:32:01.564Z,99663.80
2019-01-29T18:34:32.422Z,99664.42
2019-01-29T18:37:03.694Z,99668.91
2019-01-29T18:39:38.499Z,99666.67
2019-01-29T18:42:10.383Z,99667.83
2019-01-29T18:44:41.368Z,99675.33
2019-01-29T18:47:12.294Z,99673.63
2019-01-29T18:49:47.583Z,99674.95
2019-01-29T18:52:20.185Z,99674.56
2019-01-29T18:54:50.467Z,99678.28
2019-01-29T18:57:20.860Z,99672.61
2019-01-29T18:59:52.140Z,99669.98
2019-01-29T19:02:25.275Z,99660.17
2019-01-29T19:05:01.383Z,99668.83
2019-01-29T19:07:33.302Z,99667.51
2019-01-29T19:10:03.671Z,99671.23
2019-01-29T19:12:34.807Z,99663.34
2019-01-29T19:15:07.167Z,99665.25
2019-01-29T19:17:37.475Z,99666.05
2019-01-29T19:20:09.310Z,99670.51
2019-01-29T19:22:39.880Z,99673.30
2019-01-29T19:25:13.694Z,99666.41
2019-01-29T19:27:44.478Z,99671.67
2019-01-29T19:30:20.910Z,99669.98
2019-01-29T19:32:53.223Z,99673.92
2019-01-29T19:35:23.963Z,99672.14
2019-01-29T19:37:54.972Z,99671.67
2019-01-29T19:40:26.136Z,99677.40
2019-01-29T19:42:57.240Z,99684.82
2019-01-29T19:45:32.894Z,99684.52
2019-01-29T19:48:04.873Z,99684.05
2019-01-29T19:50:35.080Z,99689.31
2019-01-29T19:53:10.028Z,99688.50
2019-01-29T19:55:40.587Z,99686.34
2019-01-29T19:58:10.883Z,99691.29
2019-01-29T20:00:44.556Z,99695.63
2019-01-29T20:03:14.934Z,99687.73
2019-01-29T20:05:46.193Z,99693.15
2019-01-29T20:08:16.434Z,99684.48
2019-01-29T20:10:46.997Z,99683.38
2019-01-29T20:13:17.270Z,99682.06
2019-01-29T20:15:47.629Z,99682.22
2019-01-29T20:18:17.916Z,99683.45
2019-01-29T20:20:48.548Z,99685.16
2019-01-29T20:23:19.144Z,99688.33
2019-01-29T20:25:50.804Z,99682.77
2019-01-29T20:28:21.198Z,99683.23
2019-01-29T20:30:51.814Z,99695.64
2019-01-29T20:33:22.093Z,99685.08
2019-01-29T20:35:52.834Z,99680.03
2019-01-29T20:38:23.424Z,99679.26
2019-01-29T20:40:53.918Z,99677.71
2019-01-29T20:43:25.463Z,99678.17
2019-01-29T20:45:55.845Z,99679.48
2019-01-29T20:48:26.134Z,99676.05
2019-01-29T20:50:56.623Z,99678.84
2019-01-29T20:53:27.336Z,99682.39
2019-01-29T20:55:57.912Z,99683.32
2019-01-29T20:58:28.276Z,99677.52
2019-01-29T21:00:58.845Z,99673.05
2019-01-29T21:03:29.517Z,99675.55
2019-01-29T21:06:02.361Z,99674.08
2019-01-29T21:08:32.669Z,99674.08
2019-01-29T21:11:03.037Z,99669.02
2019-01-29T21:13:33.278Z,99668.72
2019-01-29T21:16:04.048Z,99669.80
2019-01-29T21:18:34.472Z,99672.42
2019-01-29T21:21:05.246Z,99669.48
2019-01-29T21:23:36.624Z,99673.94
2019-01-29T21:26:07.067Z,99678.18
2019-01-29T21:28:37.430Z,99673.52
2019-01-29T21:31:08.782Z,99676.94
2019-01-29T21:33:40.172Z,99679.88
2019-01-29T21:36:10.569Z,99673.13
2019-01-29T21:38:41.613Z,99670.27
2019-01-29T21:41:12.048Z,99676.44
2019-01-29T21:43:42.381Z,99674.81
2019-01-29T21:46:15.357Z,99668.64
2019-01-29T21:48:45.830Z,99662.00
2019-01-29T21:51:16.338Z,99664.23
2019-01-29T21:53:47.140Z,99662.38
2019-01-29T21:56:17.477Z,99669.80
2019-01-29T21:58:48.174Z,99668.56
2019-01-29T22:01:18.875Z,99663.97
2019-01-29T22:03:49.251Z,99661.34
2019-01-29T22:06:20.134Z,99660.64
2019-01-29T22:08:51.022Z,99662.03
2019-01-29T22:11:21.600Z,99658.55
2019-01-29T22:13:51.896Z,99665.66
2019-01-29T22:16:22.437Z,99664.39
2019-01-29T22:18:53.495Z,99663.22
2019-01-29T22:21:25.945Z,99658.82
2019-01-29T22:23:57.834Z,99660.21
2019-01-29T22:26:29.185Z,99655.42
2019-01-29T22:28:59.696Z,99647.62
2019-01-29T22:31:30.547Z,99653.33
2019-01-29T22:34:00.928Z,99653.33
2019-01-29T22:36:31.155Z,99645.38
2019-01-29T22:39:01.602Z,99648.55
2019-01-29T22:41:32.514Z,99647.77
2019-01-29T22:44:03.224Z,99642.06
2019-01-29T22:46:34.465Z,99650.78
2019-01-29T22:49:05.044Z,99639.89
2019-01-29T22:51:35.580Z,99632.02
2019-01-29T22:54:06.723Z,99635.42
2019-01-29T22:56:37.026Z,99630.63
2019-01-29T22:59:07.998Z,99641.20
2019-01-29T23:01:41.555Z,99636.42
2019-01-29T23:04:36.457Z,99628.93
2019-01-29T23:07:10.471Z,99634.56
2019-01-29T23:09:40.796Z,99629.78
2019-01-29T23:12:11.022Z,99627.62
2019-01-29T23:14:43.100Z,99624.14
2019-01-29T23:17:13.902Z,99629.78
2019-01-29T23:19:44.184Z,99627.55
2019-01-29T23:22:14.758Z,99624.77
2019-01-29T23:24:45.198Z,99620.52
2019-01-29T23:27:15.552Z,99619.74
2019-01-29T23:29:45.931Z,99621.09
2019-01-29T23:32:16.360Z,99618.23
2019-01-29T23:34:48.495Z,99620.09
2019-01-29T23:37:18.863Z,99621.02
2019-01-29T23:39:49.159Z,99615.11
2019-01-29T23:42:19.571Z,99617.34
2019-01-29T23:44:49.908Z,99619.58
2019-01-29T23:47:21.199Z,99617.18
2019-01-29T23:49:51.613Z,99613.82
2019-01-29T23:52:22.071Z,99609.26
2019-01-29T23:54:52.586Z,99608.88
2019-01-29T23:57:23.055Z,99602.16
2019-01-29T23:59:54.196Z,99600.08
